createdAt,value
2019-02-27T00:04:06.884Z,97.5
2019-02-27T00:09:07.224Z,97.9
2019-02-27T00:13:07.312Z,97.98
2019-02-27T00:18:07.233Z,98.1
2019-02-27T00:23:07.243Z,98.22
2019-02-27T00:28:07.212Z,98.57
2019-02-27T00:33:07.065Z,98.68
2019-02-27T00:38:07.208Z,98.61
2019-02-27T00:43:06.814Z,98.8
2019-02-27T00:48:06.869Z,98.95
2019-02-27T00:52:06.838Z,98.85
2019-02-27T00:57:06.908Z,98.79
2019-02-27T01:02:07.373Z,98.67
2019-02-27T01:07:07.444Z,98.7
2019-02-27T01:12:06.850Z,98.72
2019-02-27T01:17:06.763Z,99.21
2019-02-27T01:22:06.705Z,99.32
2019-02-27T01:26:06.770Z,99.1
2019-02-27T01:31:06.447Z,99.37
2019-02-27T01:36:06.818Z,99.36
2019-02-27T01:41:07.221Z,99.08
2019-02-27T01:46:06.664Z,99.21
2019-02-27T01:51:06.991Z,99.21
2019-02-27T01:56:07.114Z,99.52
2019-02-27T02:00:08.744Z,99.44
2019-02-27T02:05:09.935Z,99.54
2019-02-27T02:10:07.719Z,99.67
2019-02-27T02:15:07.671Z,99.54
2019-02-27T02:20:07.644Z,99.59
2019-02-27T02:25:07.586Z,99.59
2019-02-27T02:30:09.058Z,99.64
2019-02-27T02:35:07.621Z,99.77
2019-02-27T02:39:07.070Z,99.72
2019-02-27T02:44:07.160Z,99.71
2019-02-27T02:49:09.039Z,99.63
2019-02-27T02:54:07.023Z,99.59
2019-02-27T02:59:07.004Z,99.61
2019-02-27T03:04:14.009Z,99.62
2019-02-27T03:09:07.954Z,99.72
2019-02-27T03:14:07.663Z,99.82
2019-02-27T03:18:07.350Z,99.81
2019-02-27T03:23:07.396Z,99.82
2019-02-27T03:28:07.477Z,100.14
2019-02-27T03:33:06.735Z,100.01
2019-02-27T03:38:06.917Z,100.14
2019-02-27T03:43:11.806Z,100
2019-02-27T03:48:07.644Z,99.97
2019-02-27T03:52:07.707Z,99.97
2019-02-27T03:57:07.741Z,99.96
2019-02-27T04:02:07.618Z,99.95
2019-02-27T04:07:07.719Z,99.98
2019-02-27T04:12:07.270Z,100.02
2019-02-27T04:17:08.404Z,99.97
2019-02-27T04:21:07.708Z,100.05
2019-02-27T04:22:06.873Z,100.05
2019-02-27T04:26:07.396Z,100.17
2019-02-27T04:31:07.004Z,100.21
2019-02-27T04:36:07.025Z,100.26
2019-02-27T04:41:07.732Z,100.31
2019-02-27T04:46:07.456Z,100.36
2019-02-27T04:51:07.666Z,100.31
2019-02-27T04:56:07.675Z,100.31
2019-02-27T05:01:07.246Z,100.42
2019-02-27T05:05:09.603Z,100.43
2019-02-27T05:10:08.313Z,100.42
2019-02-27T05:15:09.515Z,100.43
2019-02-27T05:20:13.020Z,100.3
2019-02-27T05:25:08.662Z,100.27
2019-02-27T05:30:12.859Z,99.88
2019-02-27T05:35:06.875Z,99.92
2019-02-27T05:39:07.307Z,99.92
2019-02-27T05:44:06.213Z,100.11
2019-02-27T05:49:06.751Z,100.1
2019-02-27T05:54:06.814Z,99.87
2019-02-27T05:59:06.731Z,99.96
2019-02-27T06:04:07.231Z,100.04
2019-02-27T06:09:09.852Z,100.13
2019-02-27T06:14:07.325Z,100.17
2019-02-27T06:18:06.709Z,100.2
2019-02-27T06:23:07.992Z,100.13
2019-02-27T06:28:06.974Z,100.2
2019-02-27T06:33:12.730Z,100.06
2019-02-27T06:38:06.156Z,99.92
2019-02-27T06:43:07.602Z,99.82
2019-02-27T06:48:09.314Z,99.62
2019-02-27T06:53:06.869Z,99.52
2019-02-27T06:57:08.940Z,98.47
2019-02-27T07:02:07.401Z,97.78
2019-02-27T07:07:06.831Z,95.84
2019-02-27T07:12:08.000Z,94.52
2019-02-27T07:17:06.320Z,90.13
2019-02-27T07:22:12.904Z,89.44
2019-02-27T07:27:06.319Z,90.61
2019-02-27T07:32:07.028Z,89
2019-02-27T07:36:06.988Z,87.46
2019-02-27T07:41:07.335Z,83.88
2019-02-27T07:46:07.107Z,82.34
2019-02-27T07:51:07.282Z,80.35
2019-02-27T07:56:07.434Z,77.32
2019-02-27T08:01:07.329Z,75.65
2019-02-27T08:06:07.557Z,72
2019-02-27T08:10:07.255Z,72.46
2019-02-27T08:15:09.043Z,72.04
2019-02-27T08:20:08.061Z,68.7
2019-02-27T08:25:08.296Z,68.2
2019-02-27T08:30:11.297Z,63.08
2019-02-27T08:35:07.852Z,64.2
2019-02-27T08:40:08.816Z,63.14
2019-02-27T08:45:20.970Z,62.78
2019-02-27T08:49:07.794Z,62.33
2019-02-27T08:54:07.857Z,61.2
2019-02-27T08:59:08.696Z,63
2019-02-27T09:04:11.160Z,61.97
2019-02-27T09:09:08.720Z,60.37
2019-02-27T09:14:08.148Z,58.56
2019-02-27T09:24:06.622Z,55.44
2019-02-27T09:29:07.312Z,53.24
2019-02-27T09:33:06.885Z,55.54
2019-02-27T09:38:09.452Z,51.55
2019-02-27T09:43:07.025Z,51.67
2019-02-27T09:48:08.005Z,50.98
2019-02-27T09:53:06.823Z,49.74
2019-02-27T09:58:11.814Z,49.04
2019-02-27T10:03:07.257Z,46.37
2019-02-27T10:08:08.334Z,47.94
2019-02-27T10:12:06.275Z,46.49
2019-02-27T10:17:10.195Z,45.29
2019-02-27T10:22:06.595Z,45.4
2019-02-27T10:27:07.078Z,48.13
2019-02-27T10:32:06.534Z,44.48
2019-02-27T10:37:07.497Z,47.4
2019-02-27T10:42:06.303Z,45.95
2019-02-27T10:46:06.925Z,46.02
2019-02-27T10:51:06.359Z,44.82
2019-02-27T10:56:07.213Z,44.27
2019-02-27T11:01:07.520Z,43.21
2019-02-27T11:06:07.493Z,43.24
2019-02-27T11:11:09.308Z,42.89
2019-02-27T11:16:07.351Z,42.82
2019-02-27T11:21:07.362Z,40.45
2019-02-27T11:26:06.705Z,38.41
2019-02-27T11:30:08.370Z,41.62
2019-02-27T11:35:07.477Z,41.88
2019-02-27T11:40:08.834Z,38.74
2019-02-27T11:45:08.276Z,37.72
2019-02-27T11:50:07.669Z,35.03
2019-02-27T11:55:07.615Z,36.11
2019-02-27T12:00:09.498Z,33.97
2019-02-27T12:05:06.403Z,33.77
2019-02-27T12:09:07.357Z,33.92
2019-02-27T12:14:10.083Z,32.53
2019-02-27T12:19:09.829Z,32.4
2019-02-27T12:24:06.948Z,34.03
2019-02-27T12:29:06.925Z,35.09
2019-02-27T12:34:06.687Z,33.71
2019-02-27T12:39:07.091Z,35.43
2019-02-27T12:44:07.125Z,34.45
2019-02-27T12:48:06.189Z,33.92
2019-02-27T12:53:06.847Z,35.19
2019-02-27T12:58:06.273Z,36.03
2019-02-27T13:03:10.000Z,36.1
2019-02-27T13:08:06.941Z,35.27
2019-02-27T13:13:07.197Z,34.46
2019-02-27T13:18:07.403Z,36.22
2019-02-27T13:22:07.396Z,35.76
2019-02-27T13:27:10.269Z,35.45
2019-02-27T13:32:07.004Z,35.93
2019-02-27T13:37:10.737Z,36.27
2019-02-27T13:42:07.206Z,34.58
2019-02-27T13:47:07.134Z,35.81
2019-02-27T13:52:07.128Z,35.42
2019-02-27T13:57:08.577Z,34.82
2019-02-27T14:02:06.898Z,33.62
2019-02-27T14:06:10.609Z,32.35
2019-02-27T14:11:07.018Z,33.24
2019-02-27T14:16:06.824Z,33.96
2019-02-27T14:21:06.906Z,32.76
2019-02-27T14:26:09.651Z,35.46
2019-02-27T14:31:10.390Z,33.74
2019-02-27T14:36:09.815Z,33.51
2019-02-27T14:41:07.222Z,33.37
2019-02-27T14:45:08.553Z,35.28
2019-02-27T14:50:07.217Z,34.55
2019-02-27T14:55:07.248Z,34.74
2019-02-27T15:00:09.509Z,35.13
2019-02-27T15:05:09.724Z,36.99
2019-02-27T15:10:08.376Z,35.79
2019-02-27T15:15:10.656Z,36.76
2019-02-27T15:20:07.151Z,36.55
2019-02-27T15:24:07.237Z,36.66
2019-02-27T15:29:07.221Z,38.63
2019-02-27T15:34:07.001Z,41
2019-02-27T15:39:07.287Z,38.26
2019-02-27T15:44:07.413Z,38.14
2019-02-27T15:49:07.485Z,39.48
2019-02-27T15:54:07.571Z,40.04
2019-02-27T15:58:07.651Z,42.35
2019-02-27T16:03:12.415Z,43.95
2019-02-27T16:08:07.369Z,45.43
2019-02-27T16:13:06.994Z,45.92
2019-02-27T16:18:06.791Z,45.36
2019-02-27T16:23:06.862Z,45.93
2019-02-27T16:28:16.747Z,46.96
2019-02-27T16:32:07.808Z,47.98
2019-02-27T16:37:07.917Z,49.64
2019-02-27T16:42:07.317Z,51.83
2019-02-27T16:47:07.701Z,53.03
2019-02-27T16:52:09.483Z,54.47
2019-02-27T16:57:07.436Z,55.99
2019-02-27T17:01:07.679Z,57.27
2019-02-27T17:06:06.861Z,58.73
2019-02-27T17:11:07.485Z,61.76
2019-02-27T17:16:11.832Z,63.36
2019-02-27T17:21:08.889Z,64.06
2019-02-27T17:26:07.624Z,65.14
2019-02-27T17:30:09.560Z,66.29
2019-02-27T17:31:13.173Z,66.29
2019-02-27T17:35:07.376Z,67.84
2019-02-27T17:40:06.736Z,68.28
2019-02-27T17:45:14.146Z,67.7
2019-02-27T17:50:07.084Z,68.76
2019-02-27T17:55:08.182Z,69.18
2019-02-27T18:00:09.045Z,68.57
2019-02-27T18:05:07.483Z,67.73
2019-02-27T18:10:06.957Z,69.48
2019-02-27T18:14:11.045Z,70.38
2019-02-27T18:19:07.382Z,71.1
2019-02-27T18:24:08.647Z,70.37
2019-02-27T18:29:08.828Z,68.24
2019-02-27T18:34:07.829Z,67.65
2019-02-27T18:39:07.713Z,67.76
2019-02-27T18:44:09.047Z,69.41
2019-02-27T18:49:08.062Z,69.69
2019-02-27T18:53:14.021Z,71.38
2019-02-27T18:58:06.951Z,72.23
2019-02-27T19:03:06.873Z,74.55
2019-02-27T19:08:07.199Z,76.34
2019-02-27T19:13:06.887Z,78
2019-02-27T19:18:07.949Z,78.51
2019-02-27T19:23:07.031Z,78.81
2019-02-27T19:27:07.232Z,80.28
2019-02-27T19:32:07.255Z,80.71
2019-02-27T19:37:07.487Z,81.78
2019-02-27T19:42:13.829Z,82.29
2019-02-27T19:47:07.645Z,83
2019-02-27T19:52:06.915Z,82.63
2019-02-27T19:57:09.633Z,82.57
2019-02-27T20:01:10.396Z,83.69
2019-02-27T20:06:07.363Z,84.72
2019-02-27T20:11:07.554Z,83.85
2019-02-27T20:16:07.742Z,83.9
2019-02-27T20:21:06.750Z,83.73
2019-02-27T20:26:21.136Z,84.42
2019-02-27T20:31:07.185Z,83.52
2019-02-27T20:36:07.164Z,83.2
2019-02-27T20:40:07.650Z,84.48
2019-02-27T20:45:10.256Z,84.54
2019-02-27T20:50:09.568Z,84.75
2019-02-27T20:55:07.566Z,84.7
2019-02-27T21:00:09.680Z,85.45
2019-02-27T21:05:10.236Z,86.92
2019-02-27T21:09:12.424Z,88.15
2019-02-27T21:10:08.945Z,88.15
2019-02-27T21:14:07.014Z,88.55
2019-02-27T21:19:06.729Z,88.6
2019-02-27T21:24:07.205Z,88.12
2019-02-27T21:29:10.256Z,87.94
2019-02-27T21:34:07.834Z,89.84
2019-02-27T21:39:07.465Z,89.54
2019-02-27T21:44:07.526Z,89.84
2019-02-27T21:49:06.783Z,89.23
2019-02-27T21:53:06.941Z,89.59
2019-02-27T21:58:06.904Z,90.68
2019-02-27T22:03:06.863Z,90.87
2019-02-27T22:08:07.026Z,92.96
2019-02-27T22:13:11.372Z,91.66
2019-02-27T22:18:12.390Z,91.06
2019-02-27T22:23:07.512Z,91.38
2019-02-27T22:28:07.629Z,91.88
2019-02-27T22:32:07.396Z,92.48
2019-02-27T22:37:07.307Z,92.59
2019-02-27T22:42:06.843Z,92.9
2019-02-27T22:47:06.861Z,92.12
2019-02-27T22:52:06.980Z,92.79
2019-02-27T22:57:06.995Z,92.44
2019-02-27T23:02:07.395Z,93.69
2019-02-27T23:07:07.423Z,93.23
2019-02-27T23:11:06.962Z,93.16
2019-02-27T23:16:06.919Z,93.14
2019-02-27T23:21:06.973Z,93.27
2019-02-27T23:26:07.042Z,93.74
2019-02-27T23:31:07.017Z,95.12
2019-02-27T23:36:07.099Z,94.6
2019-02-27T23:41:06.430Z,94.7
2019-02-27T23:45:10.047Z,94.64
2019-02-27T23:50:06.691Z,95.22
2019-02-27T23:55:11.163Z,95.61
